Simpson, Nevada
Current Conditions -  °F | °C
As of 11:52 AM on Saturday 20 Dec 2014 (Local Time) from KBAN Reporting Station
Overcast Overcast  
Wind Chill: 38°   Ceiling: 3700
Heat Index: 44°   Visibility: NA
Dew Point: 29°   Wind: 12mph
Humidity: 55%   Direction: 200°SSW
Pressure: 30.11"   Gusts: 24mph
Location:  38.7596°N, 119.34°W
Report Text: KBAN 201952Z AUTO 20010G21KT OVC037 07/M02 A3011 RMK AO2 SLP174 T00671017 $
Loading
Personal Weather Stations






























Interactive Weather Map New forecast layout! Learn more

10-Day Weather Forecast

Advertisements
Track Severe Weather on mobile